createdAt,value
2022-12-25T00:00:21.108Z,70.95
2022-12-25T00:02:22.876Z,195.55
2022-12-25T00:04:24.512Z,96.88
2022-12-25T00:06:26.257Z,63.28
2022-12-25T00:08:27.792Z,39.00
2022-12-25T00:10:29.344Z,27.77
2022-12-25T00:12:30.920Z,27.90
2022-12-25T00:14:32.443Z,28.27
2022-12-25T00:16:34.076Z,59.92
2022-12-25T00:18:36.179Z,27.42
2022-12-25T00:20:37.695Z,31.42
2022-12-25T00:22:39.192Z,36.28
2022-12-25T00:24:40.751Z,45.42
2022-12-25T00:26:42.365Z,42.80
2022-12-25T00:28:44.654Z,20.48
2022-12-25T00:30:46.317Z,58.17
2022-12-25T00:32:47.942Z,34.35
2022-12-25T00:34:49.590Z,69.45
2022-12-25T00:36:52.193Z,33.35
2022-12-25T00:38:53.681Z,33.50
2022-12-25T00:40:55.212Z,51.95
2022-12-25T00:42:56.736Z,31.58
2022-12-25T00:44:58.217Z,37.30
2022-12-25T00:46:59.993Z,60.15
2022-12-25T00:49:02.000Z,91.40
2022-12-25T00:51:06.853Z,34.15
2022-12-25T00:53:08.396Z,42.45
2022-12-25T00:55:10.104Z,36.53
2022-12-25T00:57:11.621Z,28.73
2022-12-25T00:59:13.493Z,31.45
2022-12-25T01:01:15.146Z,61.92
2022-12-25T01:03:18.072Z,97.85
2022-12-25T01:05:19.702Z,59.78
2022-12-25T01:07:22.731Z,43.78
2022-12-25T01:09:42.943Z,17.42
2022-12-25T01:11:44.952Z,23.15
2022-12-25T01:13:46.426Z,17.65
2022-12-25T01:15:48.080Z,17.52
2022-12-25T01:17:49.684Z,20.88
2022-12-25T01:19:51.234Z,18.30
2022-12-25T01:21:52.775Z,32.70
2022-12-25T01:23:54.358Z,26.67
2022-12-25T01:25:55.878Z,48.55
2022-12-25T01:27:57.404Z,32.80
2022-12-25T01:29:58.941Z,26.65
2022-12-25T01:32:00.532Z,35.70
2022-12-25T01:34:02.119Z,31.17
2022-12-25T01:36:04.990Z,31.10
2022-12-25T01:38:06.543Z,44.08
2022-12-25T01:40:08.937Z,171.93
2022-12-25T01:42:22.033Z,46.88
2022-12-25T01:44:35.498Z,37.95
2022-12-25T01:46:37.110Z,88.70
2022-12-25T01:48:39.678Z,43.90
2022-12-25T01:50:44.364Z,50.45
2022-12-25T01:52:46.711Z,44.78
2022-12-25T01:54:58.116Z,67.25
2022-12-25T01:57:02.999Z,48.30
2022-12-25T01:59:08.217Z,36.85
2022-12-25T02:01:09.840Z,27.05
2022-12-25T02:03:11.795Z,35.30
2022-12-25T02:05:23.010Z,32.17
2022-12-25T02:07:28.510Z,29.27
2022-12-25T02:09:30.057Z,32.83
2022-12-25T02:11:50.277Z,33.80
2022-12-25T02:13:51.800Z,29.48
2022-12-25T02:16:08.558Z,27.52
2022-12-25T02:18:21.181Z,26.73
2022-12-25T02:20:34.811Z,34.17
2022-12-25T02:23:07.345Z,39.33
2022-12-25T02:25:33.957Z,27.17
2022-12-25T02:28:00.189Z,25.85
2022-12-25T02:30:09.917Z,26.20
2022-12-25T02:34:21.463Z,23.20
2022-12-25T02:36:28.309Z,25.02
2022-12-25T02:39:04.844Z,24.17
2022-12-25T02:41:14.349Z,29.55
2022-12-25T02:43:50.371Z,27.50
2022-12-25T02:46:24.627Z,41.38
2022-12-25T02:48:49.026Z,33.53
2022-12-25T02:51:11.979Z,31.30
2022-12-25T02:53:32.306Z,41.40
2022-12-25T02:55:57.426Z,37.78
2022-12-25T02:58:22.582Z,35.47
2022-12-25T03:00:43.320Z,40.70
2022-12-25T03:03:05.789Z,38.42
2022-12-25T03:05:31.535Z,29.65
2022-12-25T03:07:34.902Z,24.98
2022-12-25T03:09:59.853Z,22.00
2022-12-25T03:12:11.982Z,20.80
2022-12-25T03:14:32.344Z,19.50
2022-12-25T03:16:53.026Z,20.98
2022-12-25T03:18:56.162Z,21.20
2022-12-25T03:21:16.855Z,22.52
2022-12-25T03:23:40.312Z,24.48
2022-12-25T03:26:00.747Z,24.52
2022-12-25T03:28:03.016Z,24.50
2022-12-25T03:30:23.764Z,24.67
2022-12-25T03:33:23.337Z,27.55
2022-12-25T03:35:44.548Z,28.83
2022-12-25T03:38:21.784Z,30.90
2022-12-25T03:41:17.534Z,26.70
2022-12-25T03:43:52.245Z,25.80
2022-12-25T03:46:16.350Z,20.90
2022-12-25T03:48:37.032Z,23.33
2022-12-25T03:51:12.323Z,25.30
2022-12-25T03:53:39.016Z,24.58
2022-12-25T03:56:00.712Z,23.70
2022-12-25T03:58:20.561Z,23.85
2022-12-25T04:03:01.366Z,23.70
2022-12-25T04:05:22.034Z,26.67
2022-12-25T04:07:42.535Z,30.85
2022-12-25T04:10:02.455Z,27.15
2022-12-25T04:12:22.852Z,24.70
2022-12-25T04:14:43.467Z,23.55
2022-12-25T04:17:03.301Z,26.27
2022-12-25T04:21:44.663Z,19.48
2022-12-25T04:24:04.843Z,18.98
2022-12-25T04:26:25.230Z,21.48
2022-12-25T04:28:45.184Z,21.60
2022-12-25T04:31:06.046Z,20.15
2022-12-25T04:33:26.333Z,19.35
2022-12-25T04:35:46.784Z,19.33
2022-12-25T04:37:48.365Z,19.27
2022-12-25T04:39:49.917Z,18.85
2022-12-25T04:41:51.493Z,22.75
2022-12-25T04:43:53.023Z,24.95
2022-12-25T04:45:56.374Z,24.00
2022-12-25T04:48:00.555Z,22.92
2022-12-25T04:50:02.173Z,22.52
2022-12-25T04:52:03.813Z,26.02
2022-12-25T04:54:05.518Z,26.95
2022-12-25T04:56:07.110Z,24.15
2022-12-25T04:58:08.907Z,22.90
2022-12-25T05:00:10.967Z,21.58
2022-12-25T05:02:12.606Z,28.95
2022-12-25T05:04:14.285Z,31.38
2022-12-25T05:06:15.890Z,33.90
2022-12-25T05:08:17.384Z,23.83
2022-12-25T05:10:19.007Z,24.75
2022-12-25T05:12:20.646Z,24.10
2022-12-25T05:14:22.149Z,23.20
2022-12-25T05:16:24.751Z,20.70
2022-12-25T05:18:26.353Z,21.20
2022-12-25T05:20:27.933Z,21.23
2022-12-25T05:22:29.465Z,27.50
2022-12-25T05:24:31.073Z,28.02
2022-12-25T05:26:32.651Z,26.70
2022-12-25T05:28:35.460Z,26.63
2022-12-25T05:30:36.993Z,23.38
2022-12-25T05:32:38.628Z,22.83
2022-12-25T05:34:40.150Z,25.05
2022-12-25T05:36:41.742Z,26.23
2022-12-25T05:38:43.361Z,30.92
2022-12-25T05:40:44.910Z,37.15
2022-12-25T05:42:46.471Z,35.80
2022-12-25T05:44:48.019Z,39.90
2022-12-25T05:46:49.582Z,37.97
2022-12-25T05:48:51.151Z,33.67
2022-12-25T05:50:52.764Z,27.80
2022-12-25T05:52:54.377Z,25.13
2022-12-25T05:54:55.908Z,28.38
2022-12-25T05:56:57.515Z,27.60
2022-12-25T05:58:59.101Z,31.63
2022-12-25T06:01:00.846Z,26.42
2022-12-25T06:03:02.479Z,31.25
2022-12-25T06:05:05.028Z,29.30
2022-12-25T06:07:06.604Z,40.80
2022-12-25T06:09:09.172Z,46.08
2022-12-25T06:11:13.352Z,35.53
2022-12-25T06:13:14.942Z,31.23
2022-12-25T06:15:16.552Z,26.38
2022-12-25T06:17:18.065Z,28.27
2022-12-25T06:19:22.725Z,27.85
2022-12-25T06:21:24.289Z,25.48
2022-12-25T06:23:25.874Z,29.40
2022-12-25T06:25:27.689Z,27.58
2022-12-25T06:27:29.196Z,30.10
2022-12-25T06:29:30.799Z,31.00
2022-12-25T06:31:32.360Z,31.80
2022-12-25T06:33:34.010Z,32.92
2022-12-25T06:35:39.183Z,32.47
2022-12-25T06:37:41.113Z,30.90
2022-12-25T06:39:42.602Z,30.13
2022-12-25T06:41:44.123Z,29.80
2022-12-25T06:43:50.757Z,109.55
2022-12-25T06:45:53.197Z,57.75
2022-12-25T06:47:54.751Z,74.22
2022-12-25T06:49:56.296Z,66.90
2022-12-25T06:51:57.791Z,52.67
2022-12-25T06:54:03.792Z,46.30
2022-12-25T06:56:10.292Z,37.67
2022-12-25T06:58:11.842Z,46.67
2022-12-25T07:00:13.961Z,42.08
2022-12-25T07:02:21.801Z,53.50
2022-12-25T07:04:39.977Z,83.10
2022-12-25T07:06:41.728Z,67.45
2022-12-25T07:08:43.358Z,60.22
2022-12-25T07:10:44.870Z,98.47
2022-12-25T07:12:46.361Z,41.53
2022-12-25T07:14:50.106Z,52.45
2022-12-25T07:16:52.130Z,50.03
2022-12-25T07:18:53.693Z,115.82
2022-12-25T07:20:55.893Z,47.75
2022-12-25T07:22:57.459Z,59.63
2022-12-25T07:24:59.015Z,109.18
2022-12-25T07:27:00.528Z,41.47
2022-12-25T07:29:02.027Z,57.15
2022-12-25T07:31:06.023Z,79.30
2022-12-25T07:33:07.518Z,98.57
2022-12-25T07:35:09.255Z,58.58
2022-12-25T07:37:10.993Z,70.13
2022-12-25T07:39:12.675Z,117.70
2022-12-25T07:41:14.298Z,70.05
2022-12-25T07:43:15.958Z,66.78
2022-12-25T07:45:17.595Z,56.50
2022-12-25T07:47:19.152Z,83.55
2022-12-25T07:49:20.657Z,49.45
2022-12-25T07:51:22.494Z,53.15
2022-12-25T07:53:24.091Z,218.15
2022-12-25T07:55:25.701Z,60.00
2022-12-25T07:57:27.308Z,85.63
2022-12-25T07:59:28.831Z,98.22
2022-12-25T08:01:30.928Z,122.10
2022-12-25T08:03:34.266Z,239.98
2022-12-25T08:05:35.958Z,70.78
2022-12-25T08:07:37.492Z,112.90
2022-12-25T08:09:38.999Z,246.98
2022-12-25T08:11:45.671Z,59.58
2022-12-25T08:13:48.403Z,47.38
2022-12-25T08:15:50.193Z,50.85
2022-12-25T08:17:51.727Z,64.97
2022-12-25T08:19:53.217Z,52.85
2022-12-25T08:21:55.179Z,95.53
2022-12-25T08:23:57.303Z,109.90
2022-12-25T08:26:04.599Z,150.57
2022-12-25T08:28:06.805Z,225.82
2022-12-25T08:30:08.913Z,112.53
2022-12-25T08:32:10.500Z,102.95
2022-12-25T08:34:12.102Z,117.43
2022-12-25T08:36:14.002Z,100.68
2022-12-25T08:38:15.568Z,79.25
2022-12-25T08:40:17.352Z,66.18
2022-12-25T08:42:18.861Z,115.28
2022-12-25T08:44:20.585Z,72.72
2022-12-25T08:46:22.508Z,63.25
2022-12-25T08:48:24.145Z,85.13
2022-12-25T08:50:26.168Z,120.13
2022-12-25T08:52:28.897Z,101.82
2022-12-25T08:54:32.514Z,85.68
2022-12-25T08:56:34.452Z,55.20
2022-12-25T08:58:36.290Z,28.13
2022-12-25T09:00:38.065Z,32.35
2022-12-25T09:02:39.624Z,46.67
2022-12-25T09:04:41.242Z,66.47
2022-12-25T09:06:50.328Z,105.00
2022-12-25T09:08:51.872Z,75.50
2022-12-25T09:10:53.486Z,71.95
2022-12-25T09:12:55.049Z,42.17
2022-12-25T09:14:56.662Z,49.53
2022-12-25T09:16:58.245Z,32.40
2022-12-25T09:18:59.816Z,32.28
2022-12-25T09:21:03.713Z,79.13
2022-12-25T09:23:11.690Z,56.17
2022-12-25T09:25:15.280Z,48.03
2022-12-25T09:27:16.931Z,43.72
2022-12-25T09:29:19.074Z,61.88
2022-12-25T09:31:22.613Z,87.75
2022-12-25T09:33:24.541Z,40.97
2022-12-25T09:35:26.060Z,33.53
2022-12-25T09:37:29.163Z,27.77
2022-12-25T09:39:30.756Z,101.88
2022-12-25T09:42:00.675Z,34.15
2022-12-25T09:44:17.020Z,30.23
2022-12-25T09:46:30.166Z,42.38
2022-12-25T09:48:42.211Z,45.40
2022-12-25T09:51:02.567Z,37.70
2022-12-25T09:53:16.820Z,34.58
2022-12-25T09:55:26.786Z,37.67
2022-12-25T09:57:28.687Z,27.90
2022-12-25T09:59:30.241Z,35.67
2022-12-25T10:01:55.899Z,57.65
2022-12-25T10:04:28.346Z,37.92
2022-12-25T10:07:01.701Z,28.67
2022-12-25T10:09:09.449Z,31.83
2022-12-25T10:11:29.496Z,37.38
2022-12-25T10:13:59.950Z,35.25
2022-12-25T10:16:31.840Z,50.47
2022-12-25T10:18:48.399Z,36.40
2022-12-25T10:20:58.832Z,104.05
2022-12-25T10:23:03.852Z,136.27
2022-12-25T10:25:07.057Z,46.17
2022-12-25T10:27:20.064Z,62.13
2022-12-25T10:29:21.811Z,45.13
2022-12-25T10:31:26.398Z,31.90
2022-12-25T10:33:28.660Z,47.35
2022-12-25T10:35:31.604Z,33.35
2022-12-25T10:37:33.574Z,44.17
2022-12-25T10:39:36.710Z,53.28
2022-12-25T10:42:03.250Z,42.40
2022-12-25T10:44:24.279Z,24.17
2022-12-25T10:46:28.350Z,26.80
2022-12-25T10:48:30.639Z,16.95
2022-12-25T10:50:33.854Z,17.42
2022-12-25T10:52:36.031Z,18.05
2022-12-25T10:54:37.605Z,16.38
2022-12-25T10:56:39.143Z,21.98
2022-12-25T10:58:40.886Z,29.00
2022-12-25T11:00:52.379Z,42.45
2022-12-25T11:02:54.332Z,16.50
2022-12-25T11:05:03.067Z,15.25
2022-12-25T11:07:08.323Z,12.85
2022-12-25T11:09:16.785Z,11.23
2022-12-25T11:11:20.082Z,11.77
2022-12-25T11:13:25.648Z,13.80
2022-12-25T11:15:40.493Z,17.42
2022-12-25T11:17:49.300Z,10.43
2022-12-25T11:19:59.513Z,34.42
2022-12-25T11:22:03.824Z,15.27
2022-12-25T11:24:17.753Z,17.70
2022-12-25T11:26:19.545Z,14.93
2022-12-25T11:28:21.282Z,13.63
2022-12-25T11:30:23.201Z,11.68
2022-12-25T11:32:37.761Z,13.80
2022-12-25T11:34:48.603Z,17.70
2022-12-25T11:36:52.448Z,16.30
2022-12-25T11:38:54.388Z,17.83
2022-12-25T11:40:59.762Z,20.27
2022-12-25T11:43:13.585Z,17.90
2022-12-25T11:45:19.732Z,11.23
2022-12-25T11:47:36.606Z,14.75
2022-12-25T11:49:49.742Z,13.40
2022-12-25T11:51:55.692Z,20.48
2022-12-25T11:54:24.981Z,20.92
2022-12-25T11:56:30.339Z,17.92
2022-12-25T11:58:43.842Z,22.17
2022-12-25T12:00:47.433Z,15.27
2022-12-25T12:02:58.936Z,16.42
2022-12-25T12:05:26.279Z,22.85
2022-12-25T12:07:30.516Z,20.77
2022-12-25T12:09:48.602Z,46.25
2022-12-25T12:12:01.299Z,24.90
2022-12-25T12:14:34.787Z,30.33
2022-12-25T12:16:36.638Z,61.00
2022-12-25T12:18:38.409Z,78.18
2022-12-25T12:20:39.961Z,28.08
2022-12-25T12:22:50.332Z,18.83
2022-12-25T12:25:05.655Z,24.55
2022-12-25T12:27:24.852Z,49.90
2022-12-25T12:29:36.410Z,54.03
2022-12-25T12:31:49.692Z,22.60
2022-12-25T12:33:56.481Z,22.05
2022-12-25T12:35:59.484Z,25.20
2022-12-25T12:38:03.206Z,21.33
2022-12-25T12:40:07.663Z,21.58
2022-12-25T12:42:22.727Z,20.35
2022-12-25T12:44:31.372Z,20.02
2022-12-25T12:46:36.715Z,21.40
2022-12-25T12:48:41.952Z,34.97
2022-12-25T12:50:43.532Z,27.65
2022-12-25T12:52:45.157Z,23.80
2022-12-25T12:55:05.121Z,22.98
2022-12-25T12:57:23.106Z,17.50
2022-12-25T12:59:26.626Z,22.83
2022-12-25T13:01:28.240Z,16.10
2022-12-25T13:03:45.005Z,17.90
2022-12-25T13:06:17.212Z,19.30
2022-12-25T13:08:34.556Z,23.70
2022-12-25T13:10:48.533Z,23.35
2022-12-25T13:13:15.210Z,33.65
2022-12-25T13:15:18.307Z,35.97
2022-12-25T13:17:25.486Z,30.00
2022-12-25T13:19:29.187Z,24.70
2022-12-25T13:21:30.768Z,26.95
2022-12-25T13:23:37.968Z,34.75
2022-12-25T13:25:39.580Z,32.70
2022-12-25T13:27:41.112Z,24.13
2022-12-25T13:29:43.272Z,24.38
2022-12-25T13:31:45.838Z,26.13
2022-12-25T13:33:55.270Z,34.90
2022-12-25T13:35:57.717Z,31.83
2022-12-25T13:38:00.163Z,22.70
2022-12-25T13:40:05.161Z,24.80
2022-12-25T13:42:09.467Z,25.55
2022-12-25T13:44:38.118Z,23.80
2022-12-25T13:46:39.716Z,21.90
2022-12-25T13:48:42.443Z,27.95
2022-12-25T13:50:48.431Z,28.45
2022-12-25T13:52:51.690Z,23.60
2022-12-25T13:54:59.187Z,19.55
2022-12-25T13:57:01.135Z,21.15
2022-12-25T13:59:03.721Z,23.10
2022-12-25T14:01:06.537Z,22.55
2022-12-25T14:03:18.274Z,20.13
2022-12-25T14:05:42.287Z,21.67
2022-12-25T14:07:51.736Z,36.45
2022-12-25T14:10:03.367Z,38.65
2022-12-25T14:12:05.860Z,30.20
2022-12-25T14:14:18.402Z,29.35
2022-12-25T14:16:21.200Z,27.70
2022-12-25T14:18:24.384Z,30.20
2022-12-25T14:20:30.147Z,32.83
2022-12-25T14:22:32.814Z,26.75
2022-12-25T14:24:34.745Z,35.60
2022-12-25T14:26:42.283Z,291.90
2022-12-25T14:28:51.719Z,277.05
2022-12-25T14:30:56.065Z,186.00
2022-12-25T14:32:58.642Z,58.92
2022-12-25T14:35:04.666Z,43.72
2022-12-25T14:37:09.327Z,38.15
2022-12-25T14:39:34.841Z,34.50
2022-12-25T14:41:39.316Z,42.70
2022-12-25T14:43:52.121Z,123.15
2022-12-25T14:45:56.299Z,136.23
2022-12-25T14:48:01.048Z,101.43
2022-12-25T14:50:13.592Z,117.70
2022-12-25T14:52:20.512Z,114.75
2022-12-25T14:54:23.134Z,113.30
2022-12-25T14:56:28.394Z,55.78
2022-12-25T14:58:32.857Z,47.47
2022-12-25T15:00:37.711Z,50.97
2022-12-25T15:02:45.023Z,56.15
2022-12-25T15:04:46.805Z,89.90
2022-12-25T15:06:55.825Z,213.00
2022-12-25T15:09:03.031Z,136.15
2022-12-25T15:11:04.796Z,358.33
2022-12-25T15:13:07.152Z,376.48
2022-12-25T15:15:09.216Z,179.15
2022-12-25T15:17:24.353Z,193.88
2022-12-25T15:19:38.698Z,54.10
2022-12-25T15:21:40.565Z,128.00
2022-12-25T15:23:42.287Z,193.00
2022-12-25T15:25:43.863Z,192.85
2022-12-25T15:27:45.402Z,94.65
2022-12-25T15:32:16.299Z,127.82
2022-12-25T15:34:21.037Z,242.63
2022-12-25T15:36:23.846Z,182.07
2022-12-25T15:38:25.481Z,143.43
2022-12-25T15:40:27.066Z,144.13
2022-12-25T15:42:28.669Z,176.10
2022-12-25T15:44:30.266Z,148.02
2022-12-25T15:46:32.754Z,188.73
2022-12-25T15:48:34.313Z,135.13
2022-12-25T15:50:37.650Z,140.55
2022-12-25T15:52:39.183Z,146.75
2022-12-25T15:54:40.744Z,139.38
2022-12-25T15:56:45.058Z,185.55
2022-12-25T15:58:46.723Z,165.88
2022-12-25T16:00:48.334Z,142.45
2022-12-25T16:02:50.345Z,142.18
2022-12-25T16:04:54.415Z,142.88
2022-12-25T16:06:56.503Z,144.20
2022-12-25T16:08:58.074Z,143.80
2022-12-25T16:10:59.791Z,125.60
2022-12-25T16:13:01.371Z,142.80
2022-12-25T16:15:03.074Z,190.02
2022-12-25T16:17:05.012Z,191.70
2022-12-25T16:19:07.282Z,188.10
2022-12-25T16:21:14.025Z,308.02
2022-12-25T16:23:15.667Z,278.05
2022-12-25T16:25:18.875Z,217.63
2022-12-25T16:27:21.694Z,401.50
2022-12-25T16:29:23.241Z,299.25
2022-12-25T16:31:24.887Z,202.05
2022-12-25T16:33:26.520Z,512.65
2022-12-25T16:35:28.055Z,183.52
2022-12-25T16:37:29.772Z,446.80
2022-12-25T16:39:31.670Z,485.02
2022-12-25T16:41:34.422Z,167.68
2022-12-25T16:43:35.990Z,294.85
2022-12-25T16:45:40.068Z,354.20
2022-12-25T16:47:41.676Z,203.05
2022-12-25T16:49:43.412Z,179.90
2022-12-25T16:51:44.969Z,150.07
2022-12-25T16:53:47.107Z,144.93
2022-12-25T16:55:48.615Z,112.93
2022-12-25T16:57:51.222Z,138.45
2022-12-25T16:59:53.304Z,156.05
2022-12-25T17:01:54.950Z,149.70
2022-12-25T17:04:02.750Z,125.80
2022-12-25T17:06:12.390Z,134.85
2022-12-25T17:08:13.957Z,136.88
2022-12-25T17:10:15.685Z,151.25
2022-12-25T17:12:17.431Z,81.07
2022-12-25T17:14:19.010Z,88.95
2022-12-25T17:16:23.550Z,64.32
2022-12-25T17:18:25.098Z,74.65
2022-12-25T17:20:26.595Z,57.22
2022-12-25T17:22:28.107Z,58.17
2022-12-25T17:24:29.991Z,51.45
2022-12-25T17:26:32.829Z,44.53
2022-12-25T17:28:34.738Z,55.85
2022-12-25T17:30:36.242Z,46.92
2022-12-25T17:32:37.811Z,65.05
2022-12-25T17:34:39.331Z,65.00
2022-12-25T17:36:41.542Z,74.80
2022-12-25T17:38:43.797Z,81.72
2022-12-25T17:40:45.317Z,56.40
2022-12-25T17:42:46.935Z,56.15
2022-12-25T17:44:48.460Z,59.95
2022-12-25T17:46:50.729Z,56.05
2022-12-25T17:48:54.434Z,73.72
2022-12-25T17:51:01.621Z,123.97
2022-12-25T17:53:05.269Z,120.47
2022-12-25T17:55:07.249Z,156.27
2022-12-25T17:57:08.991Z,158.27
2022-12-25T17:59:17.956Z,123.25
2022-12-25T18:01:21.024Z,106.88
2022-12-25T18:03:23.055Z,106.07
2022-12-25T18:05:24.750Z,145.63
2022-12-25T18:07:26.307Z,166.55
2022-12-25T18:09:27.809Z,134.95
2022-12-25T18:11:33.159Z,90.68
2022-12-25T18:13:34.947Z,78.05
2022-12-25T18:15:38.421Z,95.28
2022-12-25T18:17:39.965Z,147.40
2022-12-25T18:19:41.494Z,217.60
2022-12-25T18:21:43.042Z,101.47
2022-12-25T18:23:44.562Z,88.57
2022-12-25T18:25:46.320Z,88.60
2022-12-25T18:27:47.899Z,83.65
2022-12-25T18:29:49.412Z,72.97
2022-12-25T18:31:51.089Z,102.28
2022-12-25T18:33:53.336Z,92.10
2022-12-25T18:35:59.979Z,94.15
2022-12-25T18:38:01.840Z,91.20
2022-12-25T18:40:04.525Z,81.95
2022-12-25T18:42:24.453Z,83.10
2022-12-25T18:44:25.983Z,80.97
2022-12-25T18:46:27.914Z,69.70
2022-12-25T18:48:30.411Z,67.20
2022-12-25T18:50:33.691Z,64.13
2022-12-25T18:52:49.405Z,98.35
2022-12-25T18:54:53.125Z,76.07
2022-12-25T18:56:54.680Z,188.50
2022-12-25T18:58:59.720Z,208.70
2022-12-25T19:01:01.504Z,278.17
2022-12-25T19:03:03.346Z,773.35
2022-12-25T19:05:05.920Z,244.48
2022-12-25T19:07:07.514Z,211.93
2022-12-25T19:09:12.338Z,85.20
2022-12-25T19:11:14.223Z,73.53
2022-12-25T19:13:15.764Z,83.78
2022-12-25T19:15:17.288Z,145.50
2022-12-25T19:17:18.998Z,234.50
2022-12-25T19:19:21.326Z,143.02
2022-12-25T19:21:22.962Z,185.65
2022-12-25T19:23:24.479Z,108.45
2022-12-25T19:25:26.088Z,61.85
2022-12-25T19:27:27.722Z,68.00
2022-12-25T19:29:29.629Z,65.68
2022-12-25T19:31:31.279Z,79.75
2022-12-25T19:33:33.782Z,60.47
2022-12-25T19:35:38.486Z,130.50
2022-12-25T19:37:40.049Z,258.92
2022-12-25T19:39:46.774Z,141.82
2022-12-25T19:41:48.492Z,88.10
2022-12-25T19:43:50.268Z,112.18
2022-12-25T19:45:51.934Z,73.07
2022-12-25T19:47:53.560Z,86.75
2022-12-25T19:49:59.584Z,44.50
2022-12-25T19:52:04.051Z,62.15
2022-12-25T19:54:06.649Z,79.43
2022-12-25T19:56:08.227Z,71.00
2022-12-25T19:58:09.847Z,79.53
2022-12-25T20:00:12.116Z,89.88
2022-12-25T20:02:13.986Z,108.25
2022-12-25T20:04:18.208Z,63.22
2022-12-25T20:06:24.865Z,54.50
2022-12-25T20:08:26.580Z,60.22
2022-12-25T20:10:28.551Z,82.85
2022-12-25T20:12:31.307Z,73.18
2022-12-25T20:14:32.928Z,260.98
2022-12-25T20:16:37.953Z,114.85
2022-12-25T20:18:40.338Z,55.45
2022-12-25T20:20:42.908Z,50.17
2022-12-25T20:22:44.429Z,50.83
2022-12-25T20:24:47.778Z,53.33
2022-12-25T20:26:53.741Z,63.33
2022-12-25T20:28:59.287Z,79.90
2022-12-25T20:31:14.781Z,42.70
2022-12-25T20:33:16.324Z,54.20
2022-12-25T20:35:18.058Z,44.50
2022-12-25T20:37:19.633Z,59.30
2022-12-25T20:39:21.179Z,55.60
2022-12-25T20:41:28.043Z,65.18
2022-12-25T20:43:31.025Z,51.28
2022-12-25T20:45:33.103Z,58.53
2022-12-25T20:47:35.034Z,50.53
2022-12-25T20:49:36.889Z,55.35
2022-12-25T20:51:38.396Z,55.47
2022-12-25T20:53:40.480Z,128.98
2022-12-25T20:55:50.102Z,127.90
2022-12-25T20:57:51.707Z,176.88
2022-12-25T20:59:54.511Z,212.90
2022-12-25T21:01:56.861Z,50.92
2022-12-25T21:03:58.834Z,50.65
2022-12-25T21:06:01.277Z,66.47
2022-12-25T21:08:02.808Z,44.53
2022-12-25T21:10:04.961Z,38.50
2022-12-25T21:12:07.367Z,56.00
2022-12-25T21:14:09.306Z,53.20
2022-12-25T21:16:14.206Z,123.60
2022-12-25T21:18:17.217Z,100.10
2022-12-25T21:20:18.777Z,78.53
2022-12-25T21:22:20.288Z,112.68
2022-12-25T21:24:21.973Z,102.07
2022-12-25T21:26:28.863Z,40.67
2022-12-25T21:28:32.345Z,67.82
2022-12-25T21:30:34.358Z,82.60
2022-12-25T21:32:54.653Z,62.38
2022-12-25T21:34:56.243Z,48.03
2022-12-25T21:36:57.884Z,59.15
2022-12-25T21:39:05.415Z,54.03
2022-12-25T21:41:10.263Z,46.58
2022-12-25T21:43:15.593Z,73.97
2022-12-25T21:45:17.097Z,49.80
2022-12-25T21:47:18.853Z,45.58
2022-12-25T21:49:39.079Z,62.95
2022-12-25T21:52:12.926Z,159.90
2022-12-25T21:54:15.945Z,83.43
2022-12-25T21:56:17.803Z,60.40
2022-12-25T21:58:19.356Z,45.22
2022-12-25T22:00:21.080Z,59.80
2022-12-25T22:02:22.732Z,45.45
2022-12-25T22:04:24.393Z,62.42
2022-12-25T22:06:45.296Z,49.33
2022-12-25T22:08:46.829Z,54.75
2022-12-25T22:10:48.327Z,62.95
2022-12-25T22:13:08.457Z,57.15
2022-12-25T22:15:10.878Z,46.50
2022-12-25T22:17:31.590Z,52.28
2022-12-25T22:19:45.411Z,44.72
2022-12-25T22:21:47.065Z,42.30
2022-12-25T22:23:48.668Z,37.58
2022-12-25T22:25:50.185Z,39.33
2022-12-25T22:27:52.655Z,67.35
2022-12-25T22:29:54.218Z,58.13
2022-12-25T22:31:55.845Z,61.97
2022-12-25T22:33:57.517Z,55.50
2022-12-25T22:36:06.907Z,48.22
2022-12-25T22:38:08.432Z,48.38
2022-12-25T22:40:14.054Z,50.83
2022-12-25T22:42:15.926Z,48.47
2022-12-25T22:44:18.385Z,48.80
2022-12-25T22:46:20.360Z,40.75
2022-12-25T22:48:21.951Z,51.03
2022-12-25T22:50:23.450Z,48.53
2022-12-25T22:52:25.316Z,51.92
2022-12-25T22:54:29.896Z,72.35
2022-12-25T22:56:31.431Z,63.60
2022-12-25T22:58:32.952Z,66.65
2022-12-25T23:00:34.547Z,42.58
2022-12-25T23:02:36.431Z,44.25
2022-12-25T23:04:38.140Z,40.42
2022-12-25T23:06:40.067Z,44.28
2022-12-25T23:08:41.571Z,45.55
2022-12-25T23:10:43.117Z,54.90
2022-12-25T23:13:03.124Z,41.50
2022-12-25T23:15:05.123Z,36.75
2022-12-25T23:17:30.911Z,46.60
2022-12-25T23:19:50.911Z,46.25
2022-12-25T23:22:11.669Z,49.83
2022-12-25T23:24:31.606Z,44.45
2022-12-25T23:26:33.254Z,44.53
2022-12-25T23:28:59.512Z,38.28
2022-12-25T23:31:01.058Z,39.97
2022-12-25T23:33:02.621Z,45.25
2022-12-25T23:35:04.595Z,28.20
2022-12-25T23:37:06.677Z,39.75
2022-12-25T23:39:10.427Z,41.75
2022-12-25T23:41:12.222Z,44.67
2022-12-25T23:43:13.804Z,68.68
2022-12-25T23:45:15.425Z,71.68
2022-12-25T23:47:16.944Z,50.70
2022-12-25T23:49:18.489Z,45.83
2022-12-25T23:51:20.065Z,32.53
2022-12-25T23:53:21.609Z,39.63
2022-12-25T23:55:23.156Z,39.35
2022-12-25T23:57:24.661Z,43.70
2022-12-25T23:59:28.408Z,44.45
